Time;durP1;ratioP1;P1;durP2;ratioP2;P2;SDS_P1;SDS_P2;PMS_P1;PMS_P2;Temp;Humidity;BMP_temperature;BMP_pressure;BME280_temperature;BME280_humidity;BME280_pressure;Samples;Min_cycle;Max_cycle;Signal;HPM_P1;HPM_P2
2022/05/04 00:00:51;;;;;;;4.13;2.65;;;17.60;45.60;;;;;;5094158;28;20059;-72
2022/05/04 00:03:18;;;;;;;2.55;1.90;;;17.50;46.60;;;;;;5082728;28;20409;-72
2022/05/04 00:05:43;;;;;;;2.63;2.05;;;17.50;45.60;;;;;;5098357;28;20020;-73
2022/05/04 00:08:09;;;;;;;2.67;2.08;;;17.50;45.60;;;;;;5096771;28;20101;-71
2022/05/04 00:10:36;;;;;;;3.40;2.05;;;17.50;45.60;;;;;;5097181;28;20028;-73
2022/05/04 00:13:02;;;;;;;3.92;2.05;;;17.40;45.70;;;;;;5094103;28;20481;-72
2022/05/04 00:15:29;;;;;;;3.28;1.98;;;17.30;46.00;;;;;;5087689;28;20032;-71
2022/05/04 00:17:56;;;;;;;3.70;2.40;;;17.30;45.80;;;;;;5086348;28;20022;-71
2022/05/04 00:20:22;;;;;;;2.15;1.73;;;17.20;46.10;;;;;;5093621;28;20392;-71
2022/05/04 00:22:47;;;;;;;2.25;1.73;;;17.10;46.10;;;;;;5090411;28;20024;-71
2022/05/04 00:25:13;;;;;;;4.95;2.08;;;17.10;46.30;;;;;;5094244;28;20439;-71
2022/05/04 00:27:39;;;;;;;3.08;2.10;;;17.10;46.50;;;;;;5092307;28;20036;-72
2022/05/04 00:30:06;;;;;;;2.65;2.45;;;17.00;46.70;;;;;;5091743;28;20021;-71
2022/05/04 00:32:32;;;;;;;5.63;2.53;;;17.00;47.40;;;;;;5084947;28;20055;-73
2022/05/04 00:34:59;;;;;;;3.38;2.20;;;17.00;47.50;;;;;;5094069;28;20063;-73
2022/05/04 00:37:25;;;;;;;3.40;2.50;;;17.00;48.10;;;;;;5095215;28;20024;-72
2022/05/04 00:39:51;;;;;;;3.40;2.28;;;17.00;48.80;;;;;;5095192;28;20016;-70
2022/05/04 00:42:20;;;;;;;2.50;2.10;;;17.10;48.20;;;;;;5086734;28;20021;-70
2022/05/04 00:44:51;;;;;;;6.50;2.78;;;17.10;48.20;;;;;;5085141;28;20574;-71
2022/05/04 00:47:18;;;;;;;5.43;2.83;;;17.20;49.50;;;;;;5095118;28;20020;-73
2022/05/04 00:49:47;;;;;;;5.00;2.53;;;17.20;49.20;;;;;;5094738;28;20027;-70
2022/05/04 00:52:14;;;;;;;5.55;2.30;;;17.30;49.10;;;;;;5094057;28;20023;-72
2022/05/04 00:54:43;;;;;;;2.85;2.17;;;17.30;49.00;;;;;;5093891;28;20450;-72
2022/05/04 00:57:11;;;;;;;2.75;2.35;;;17.20;49.20;;;;;;5094253;28;20061;-71
2022/05/04 00:59:38;;;;;;;3.38;2.63;;;17.30;48.80;;;;;;5094808;28;20040;-72
2022/05/04 01:02:04;;;;;;;3.30;2.00;;;17.20;48.90;;;;;;5080219;28;20033;-71
2022/05/04 01:04:30;;;;;;;3.30;2.30;;;17.30;48.80;;;;;;5074910;28;20108;-73
2022/05/04 01:06:56;;;;;;;3.80;2.13;;;17.30;48.50;;;;;;5074666;28;20032;-70
2022/05/04 01:09:22;;;;;;;3.10;2.28;;;17.30;48.10;;;;;;5074548;28;20028;-72
2022/05/04 01:11:49;;;;;;;4.72;2.53;;;17.30;48.10;;;;;;5074500;28;20039;-72
2022/05/04 01:14:16;;;;;;;3.35;2.28;;;17.40;48.10;;;;;;5080767;28;20028;-71
2022/05/04 01:16:45;;;;;;;5.13;2.20;;;17.40;48.20;;;;;;5093678;28;20020;-70
2022/05/04 01:19:12;;;;;;;3.10;2.15;;;17.40;48.30;;;;;;5094680;28;20016;-72
2022/05/04 01:21:38;;;;;;;2.00;1.70;;;17.50;48.50;;;;;;5094575;28;20407;-70
2022/05/04 01:24:05;;;;;;;3.58;2.30;;;17.50;48.20;;;;;;5092890;28;20089;-70
2022/05/04 01:26:30;;;;;;;2.33;1.77;;;17.50;48.10;;;;;;5094558;28;20028;-71
2022/05/04 01:28:56;;;;;;;2.65;2.25;;;17.60;48.00;;;;;;5094284;28;20024;-71
2022/05/04 01:31:23;;;;;;;2.30;1.98;;;17.60;48.50;;;;;;5093893;28;20428;-70
2022/05/04 01:33:49;;;;;;;5.80;2.17;;;17.60;48.60;;;;;;5094416;28;20069;-71
2022/05/04 01:36:15;;;;;;;3.78;2.10;;;17.60;48.50;;;;;;5093080;28;20035;-73
2022/05/04 01:38:40;;;;;;;5.90;1.70;;;17.60;48.20;;;;;;5092745;28;20024;-70
2022/05/04 01:42:02;;;;;;;2.55;2.10;;;17.60;48.10;;;;;;5094291;28;20532;-72
2022/05/04 01:43:52;;;;;;;6.40;2.05;;;17.60;48.10;;;;;;5089513;28;20039;-71
2022/05/04 01:46:19;;;;;;;2.72;2.25;;;17.60;47.90;;;;;;5072633;28;20037;-72
2022/05/04 01:48:45;;;;;;;2.58;2.05;;;17.60;48.10;;;;;;5073886;28;20479;-72
2022/05/04 01:51:10;;;;;;;3.78;2.40;;;17.50;48.00;;;;;;5074576;28;20043;-72
2022/05/04 01:53:36;;;;;;;3.80;2.53;;;17.50;48.50;;;;;;5094140;28;20032;-72
2022/05/04 01:56:07;;;;;;;3.40;2.40;;;17.40;49.10;;;;;;5094036;28;20028;-72
2022/05/04 01:58:33;;;;;;;3.25;2.58;;;17.40;49.30;;;;;;5092690;28;20020;-71
2022/05/04 02:00:58;;;;;;;2.65;2.20;;;17.30;49.80;;;;;;5076126;28;20054;-72
2022/05/04 02:03:25;;;;;;;5.53;2.97;;;17.30;49.60;;;;;;5072383;28;20025;-70
2022/05/04 02:05:51;;;;;;;3.17;2.40;;;17.30;50.10;;;;;;5072238;28;20058;-70
2022/05/04 02:08:17;;;;;;;4.35;2.60;;;17.30;50.30;;;;;;5073566;28;20024;-72
2022/05/04 02:10:43;;;;;;;4.55;2.42;;;17.20;50.40;;;;;;5073293;28;20029;-72
2022/05/04 02:13:08;;;;;;;6.05;2.88;;;17.30;50.70;;;;;;5073388;28;20024;-72
2022/05/04 02:15:34;;;;;;;3.92;2.65;;;17.30;51.00;;;;;;5072428;28;20074;-71
2022/05/04 02:18:00;;;;;;;5.47;3.10;;;17.20;51.30;;;;;;5073376;28;20477;-72
2022/05/04 02:20:25;;;;;;;3.28;2.38;;;17.30;51.10;;;;;;5073263;28;20020;-73
2022/05/04 02:22:51;;;;;;;3.35;2.67;;;17.30;50.60;;;;;;5073099;28;20036;-71
2022/05/04 02:25:17;;;;;;;9.48;3.03;;;17.30;50.60;;;;;;5091147;28;20489;-73
2022/05/04 02:27:43;;;;;;;3.28;2.63;;;17.40;50.90;;;;;;5093441;28;20062;-71
2022/05/04 02:30:09;;;;;;;5.65;3.13;;;17.30;51.70;;;;;;5092435;28;20153;-71
2022/05/04 02:32:35;;;;;;;4.05;3.03;;;17.30;52.00;;;;;;5093377;28;20052;-70
2022/05/04 02:37:57;;;;;;;3.22;2.50;;;17.40;51.70;;;;;;5093328;28;20154;-73
2022/05/04 02:40:26;;;;;;;5.10;2.85;;;17.40;51.50;;;;;;5077642;28;20043;-70
2022/05/04 02:42:53;;;;;;;3.38;2.60;;;17.40;52.00;;;;;;5072938;28;20027;-71
2022/05/04 02:45:18;;;;;;;5.57;3.30;;;17.40;52.10;;;;;;5075956;28;20035;-70
2022/05/04 02:47:44;;;;;;;7.43;3.13;;;17.40;52.50;;;;;;5072919;28;20025;-70
2022/05/04 02:50:10;;;;;;;4.53;2.90;;;17.40;52.40;;;;;;5070919;28;20481;-70
2022/05/04 02:52:36;;;;;;;6.28;3.20;;;17.40;52.40;;;;;;5071613;28;20108;-71
2022/05/04 02:55:03;;;;;;;3.15;2.80;;;17.40;52.70;;;;;;5088676;28;20028;-72
2022/05/04 02:57:28;;;;;;;4.00;2.67;;;17.40;52.50;;;;;;5091738;28;20107;-72
2022/05/04 02:59:54;;;;;;;4.75;2.67;;;17.40;52.20;;;;;;5073718;28;20120;-71
2022/05/04 03:02:29;;;;;;;3.20;2.40;;;17.40;52.40;;;;;;5071503;28;20035;-70
2022/05/04 03:04:57;;;;;;;3.60;2.92;;;17.40;52.20;;;;;;5072735;28;20027;-72
2022/05/04 03:07:23;;;;;;;6.03;3.00;;;17.40;52.80;;;;;;5072677;28;20495;-70
2022/05/04 03:09:49;;;;;;;6.03;3.35;;;17.40;53.20;;;;;;5072351;28;20024;-71
2022/05/04 03:12:15;;;;;;;3.38;3.03;;;17.40;53.60;;;;;;5072564;28;20100;-71
2022/05/04 03:14:40;;;;;;;3.70;2.60;;;17.40;53.80;;;;;;5071603;28;20111;-71
2022/05/04 03:17:06;;;;;;;3.67;2.50;;;17.40;53.80;;;;;;5079860;28;20492;-70
2022/05/04 03:19:32;;;;;;;4.68;2.55;;;17.40;53.60;;;;;;5092645;28;20048;-72
2022/05/04 03:21:57;;;;;;;6.53;3.00;;;17.40;53.50;;;;;;5091353;28;20024;-72
2022/05/04 03:24:23;;;;;;;4.55;3.08;;;17.40;53.40;;;;;;5089597;28;20024;-72
2022/05/04 03:26:49;;;;;;;5.05;3.00;;;17.50;53.50;;;;;;5092638;28;20036;-72
2022/05/04 03:29:15;;;;;;;3.72;2.78;;;17.40;53.50;;;;;;5092596;28;20489;-72
2022/05/04 03:31:41;;;;;;;4.28;3.40;;;17.50;53.40;;;;;;5092436;28;20069;-70
2022/05/04 03:34:06;;;;;;;5.55;2.90;;;17.50;53.30;;;;;;5092592;28;20103;-72
2022/05/04 03:36:35;;;;;;;8.52;3.17;;;17.50;53.80;;;;;;5092575;28;20487;-70
2022/05/04 03:39:01;;;;;;;5.68;3.45;;;17.50;54.30;;;;;;5088468;28;20047;-71
2022/05/04 03:41:27;;;;;;;4.97;3.25;;;17.50;53.70;;;;;;5072282;28;20032;-70
2022/05/04 03:43:54;;;;;;;4.13;3.50;;;17.40;54.00;;;;;;5072519;28;20021;-71
2022/05/04 03:46:24;;;;;;;4.60;2.95;;;17.40;54.20;;;;;;5072289;28;20078;-72
2022/05/04 03:48:53;;;;;;;5.60;3.53;;;17.40;54.60;;;;;;5072620;28;20029;-71
2022/05/04 03:51:20;;;;;;;3.53;3.00;;;17.40;54.40;;;;;;5072093;28;20024;-70
2022/05/04 03:53:52;;;;;;;5.13;3.42;;;17.40;54.50;;;;;;5072232;28;20059;-72
2022/05/04 03:56:19;;;;;;;3.20;2.90;;;17.40;54.60;;;;;;5076573;28;20020;-71
2022/05/04 03:58:45;;;;;;;4.50;3.50;;;17.40;54.30;;;;;;5072172;28;20024;-73
2022/05/04 04:01:11;;;;;;;5.53;3.60;;;17.40;54.30;;;;;;5072445;28;20048;-71
2022/05/04 04:03:37;;;;;;;4.72;3.13;;;17.40;54.40;;;;;;5075893;28;20099;-71
2022/05/04 04:06:03;;;;;;;7.00;3.38;;;17.40;54.20;;;;;;5074424;28;20074;-72
2022/05/04 04:08:30;;;;;;;4.32;3.15;;;17.40;54.40;;;;;;5074376;28;20033;-71
2022/05/04 04:10:57;;;;;;;4.28;3.22;;;17.40;54.60;;;;;;5075553;28;20071;-70
2022/05/04 04:13:23;;;;;;;7.40;3.00;;;17.40;54.40;;;;;;5075676;28;20024;-70
2022/05/04 04:15:51;;;;;;;4.53;3.40;;;17.40;54.20;;;;;;5075703;28;20414;-71
2022/05/04 04:18:18;;;;;;;4.63;3.17;;;17.40;54.20;;;;;;5075561;28;20016;-71
2022/05/04 04:23:29;;;;;;;5.07;3.33;;;17.40;54.10;;;;;;5075504;28;20517;-73
2022/05/04 04:25:55;;;;;;;6.70;3.72;;;17.40;54.00;;;;;;5074081;28;20028;-73
2022/05/04 04:28:20;;;;;;;4.30;3.42;;;17.40;53.90;;;;;;5073946;28;20450;-71
2022/05/04 04:30:47;;;;;;;4.18;3.50;;;17.40;53.80;;;;;;5075218;28;20031;-71
2022/05/04 04:33:12;;;;;;;4.20;3.47;;;17.40;53.70;;;;;;5075261;28;20039;-71
2022/05/04 04:35:39;;;;;;;5.90;3.58;;;17.40;53.80;;;;;;5078606;28;20473;-72
2022/05/04 04:38:07;;;;;;;3.97;3.05;;;17.50;53.70;;;;;;5094177;28;20020;-71
2022/05/04 04:40:33;;;;;;;12.30;3.45;;;17.50;53.60;;;;;;5095407;28;20035;-73
2022/05/04 04:43:00;;;;;;;6.93;3.38;;;17.50;53.70;;;;;;5095428;28;20027;-73
2022/05/04 04:45:27;;;;;;;4.68;3.33;;;17.60;53.60;;;;;;5079858;28;20024;-70
2022/05/04 04:47:53;;;;;;;5.03;3.15;;;17.60;53.60;;;;;;5075209;28;20016;-71
2022/05/04 04:50:19;;;;;;;5.72;3.42;;;17.60;53.70;;;;;;5073771;28;20032;-73
2022/05/04 04:52:45;;;;;;;3.17;2.80;;;17.60;53.50;;;;;;5075203;28;20070;-70
2022/05/04 04:55:11;;;;;;;5.25;3.40;;;17.70;53.40;;;;;;5074822;28;20096;-73
2022/05/04 04:57:37;;;;;;;5.65;3.72;;;17.70;53.40;;;;;;5075576;28;20120;-70
2022/05/04 05:00:05;;;;;;;6.68;3.38;;;17.70;53.30;;;;;;5074006;28;20040;-70
2022/05/04 05:02:31;;;;;;;5.95;3.67;;;17.80;53.30;;;;;;5085097;28;20443;-71
2022/05/04 05:04:58;;;;;;;5.13;3.22;;;17.80;53.40;;;;;;5075176;28;20398;-72
2022/05/04 05:07:24;;;;;;;4.63;3.35;;;17.90;53.50;;;;;;5074691;28;20021;-72
2022/05/04 05:09:50;;;;;;;6.82;3.65;;;17.90;53.70;;;;;;5074635;28;20021;-70
2022/05/04 05:12:16;;;;;;;8.68;3.80;;;18.00;53.90;;;;;;5077923;28;20024;-72
2022/05/04 05:17:27;;;;;;;7.70;3.95;;;18.10;54.20;;;;;;5094986;28;20067;-72
2022/05/04 05:19:53;;;;;;;7.25;4.50;;;18.10;53.50;;;;;;5093512;28;20028;-73
2022/05/04 05:22:18;;;;;;;6.22;3.97;;;18.20;53.60;;;;;;5086341;28;20119;-73
2022/05/04 05:24:44;;;;;;;5.57;4.22;;;18.20;53.40;;;;;;5074535;28;20051;-72
2022/05/04 05:27:10;;;;;;;7.38;4.32;;;18.30;53.30;;;;;;5074508;28;20390;-73
2022/05/04 05:29:36;;;;;;;7.22;4.13;;;18.40;53.10;;;;;;5074371;28;20021;-71
2022/05/04 05:32:02;;;;;;;5.68;4.22;;;18.50;53.00;;;;;;5074602;28;20021;-73
2022/05/04 05:34:31;;;;;;;6.95;4.70;;;18.60;52.70;;;;;;5090737;28;20016;-72
2022/05/04 05:36:57;;;;;;;6.70;4.82;;;18.70;52.50;;;;;;5079227;28;20462;-73
2022/05/04 05:39:23;;;;;;;7.93;5.00;;;18.80;52.20;;;;;;5072918;28;20035;-73
2022/05/04 05:41:48;;;;;;;7.18;4.90;;;18.90;51.90;;;;;;5088684;28;20082;-74
2022/05/04 05:44:14;;;;;;;8.93;4.50;;;19.00;51.80;;;;;;5088791;28;20433;-72
2022/05/04 05:46:40;;;;;;;9.88;4.72;;;19.10;51.70;;;;;;5083206;28;20410;-71
2022/05/04 05:49:09;;;;;;;9.20;4.78;;;19.20;51.60;;;;;;5091647;28;20028;-72
2022/05/04 05:51:35;;;;;;;16.13;5.35;;;19.30;51.40;;;;;;5089050;28;20032;-71
2022/05/04 05:54:00;;;;;;;13.85;5.18;;;19.40;51.30;;;;;;5089437;28;20042;-71
2022/05/04 05:56:26;;;;;;;7.43;4.93;;;19.50;51.10;;;;;;5087371;28;20523;-72
2022/05/04 05:58:52;;;;;;;9.30;5.82;;;19.60;51.00;;;;;;5089031;28;20349;-70
2022/05/04 06:01:18;;;;;;;8.95;6.13;;;19.70;50.70;;;;;;5085990;28;20040;-71
2022/05/04 06:03:43;;;;;;;14.52;6.13;;;19.70;50.40;;;;;;5093962;28;20374;-71
2022/05/04 06:06:09;;;;;;;8.73;5.65;;;19.90;50.30;;;;;;5090788;28;20058;-72
2022/05/04 06:08:35;;;;;;;5.78;5.05;;;19.90;50.10;;;;;;5087311;28;20032;-71
2022/05/04 06:11:01;;;;;;;10.00;6.47;;;20.00;50.20;;;;;;5083907;28;20073;-72
2022/05/04 06:13:27;;;;;;;8.60;5.60;;;20.10;50.10;;;;;;5087875;28;20142;-71
2022/05/04 06:15:53;;;;;;;9.05;6.05;;;20.10;49.90;;;;;;5086747;28;20376;-72
2022/05/04 06:18:19;;;;;;;19.20;8.63;;;20.20;49.80;;;;;;5093798;28;20031;-73
2022/05/04 06:20:45;;;;;;;14.27;7.18;;;20.30;49.60;;;;;;5081783;28;20059;-71
2022/05/04 06:23:10;;;;;;;11.77;6.63;;;20.40;49.50;;;;;;5095313;28;20115;-73
2022/05/04 06:25:37;;;;;;;10.13;6.50;;;20.50;49.40;;;;;;5083755;28;20032;-73
2022/05/04 06:28:03;;;;;;;12.73;7.57;;;20.60;49.20;;;;;;5090960;28;20377;-72
2022/05/04 06:35:57;;;;;;;19.48;8.82;;;21.00;48.30;;;;;;5075778;28;20036;-73
2022/05/04 06:38:23;;;;;;;18.05;9.77;;;21.20;48.20;;;;;;5081784;28;20025;-71
2022/05/04 06:40:49;;;;;;;21.85;10.07;;;21.30;47.90;;;;;;5074895;28;20115;-71
2022/05/04 06:43:15;;;;;;;34.03;11.63;;;21.50;47.60;;;;;;5076884;28;20024;-71
2022/05/04 06:45:41;;;;;;;26.95;12.15;;;21.60;47.50;;;;;;5088002;28;20027;-73
2022/05/04 06:48:07;;;;;;;19.40;11.20;;;21.70;47.10;;;;;;5088472;28;20491;-71
2022/05/04 06:50:33;;;;;;;23.70;11.23;;;21.80;46.60;;;;;;5091285;28;20028;-71
2022/05/04 06:52:59;;;;;;;18.80;11.43;;;21.90;46.30;;;;;;5085195;28;20481;-73
2022/05/04 06:55:25;;;;;;;21.63;11.52;;;22.00;46.00;;;;;;5078344;28;20055;-72
2022/05/04 06:57:50;;;;;;;20.58;11.23;;;22.10;45.90;;;;;;5072965;28;20090;-73
2022/05/04 07:00:17;;;;;;;22.73;11.00;;;22.20;45.70;;;;;;5078775;28;20126;-73
2022/05/04 07:02:43;;;;;;;21.88;11.23;;;22.30;45.40;;;;;;5093060;28;20031;-72
2022/05/04 07:05:09;;;;;;;26.08;11.90;;;22.40;45.00;;;;;;5091751;28;20028;-71
2022/05/04 07:07:35;;;;;;;24.65;12.32;;;22.50;45.00;;;;;;5077695;28;20039;-72
2022/05/04 07:10:01;;;;;;;23.13;12.50;;;22.50;44.30;;;;;;5072898;28;20078;-73
2022/05/04 07:12:27;;;;;;;21.73;12.55;;;22.60;44.20;;;;;;5073308;28;20021;-71
2022/05/04 07:14:56;;;;;;;23.98;13.02;;;22.60;43.90;;;;;;5083060;28;20028;-73
2022/05/04 07:17:22;;;;;;;29.08;13.43;;;22.70;43.80;;;;;;5086666;28;20454;-71
2022/05/04 07:19:48;;;;;;;26.02;12.52;;;22.70;43.60;;;;;;5083664;28;20024;-73
2022/05/04 07:22:14;;;;;;;28.00;13.00;;;22.70;43.40;;;;;;5113144;28;20108;-72
2022/05/04 07:24:39;;;;;;;26.73;13.38;;;22.70;43.40;;;;;;5102416;28;20032;-73
2022/05/04 07:27:08;;;;;;;24.88;11.77;;;22.80;43.40;;;;;;5092284;28;20035;-73
2022/05/04 07:29:35;;;;;;;21.50;11.35;;;22.80;43.50;;;;;;5086648;28;20491;-72
2022/05/04 07:32:02;;;;;;;23.25;11.63;;;22.90;43.00;;;;;;5088726;28;20035;-73
2022/05/04 07:34:28;;;;;;;24.60;11.68;;;22.90;42.70;;;;;;5077718;28;20032;-72
2022/05/04 07:36:54;;;;;;;19.08;10.82;;;23.00;42.80;;;;;;5086022;28;20024;-72
2022/05/04 07:42:24;;;;;;;;;;;23.10;42.60;;;;;;5095556;28;20074;-72
2022/05/04 07:45:12;;;;;;;17.60;10.30;;;23.20;43.50;;;;;;5088422;28;19973;-72
2022/05/04 07:47:39;;;;;;;21.70;10.25;;;23.30;42.80;;;;;;5087659;28;20548;-73
2022/05/04 07:50:07;;;;;;;26.02;11.07;;;23.30;42.30;;;;;;5095064;28;20530;-72
2022/05/04 07:52:34;;;;;;;19.25;10.15;;;23.40;42.10;;;;;;5085354;28;20423;-72
2022/05/04 07:55:00;;;;;;;16.25;9.35;;;23.40;42.00;;;;;;5082023;28;20128;-72
2022/05/04 07:57:26;;;;;;;14.60;7.60;;;23.50;41.30;;;;;;5082726;28;20035;-72
2022/05/04 08:05:24;;;;;;;14.73;6.55;;;23.60;40.70;;;;;;5087711;28;20039;-72
2022/05/04 08:07:50;;;;;;;10.77;6.25;;;23.60;40.50;;;;;;5088143;28;20078;-72
2022/05/04 08:10:16;;;;;;;12.85;6.60;;;23.60;40.40;;;;;;5075780;28;20389;-72
2022/05/04 08:12:42;;;;;;;20.85;7.22;;;23.50;40.20;;;;;;5076202;28;20024;-72
2022/05/04 08:15:08;;;;;;;16.08;6.82;;;23.40;40.40;;;;;;5077369;28;20024;-72
2022/05/04 08:17:34;;;;;;;9.68;7.10;;;23.40;40.60;;;;;;5087172;28;20016;-71
2022/05/04 08:20:00;;;;;;;13.27;6.90;;;23.30;40.60;;;;;;5087088;28;20036;-72
2022/05/04 08:22:28;;;;;;;17.25;7.38;;;23.20;40.80;;;;;;5085269;28;20024;-72
2022/05/04 08:24:54;;;;;;;13.35;6.97;;;23.20;40.90;;;;;;5084270;28;20134;-72
2022/05/04 08:27:20;;;;;;;16.50;7.95;;;23.10;41.00;;;;;;5084162;28;20032;-72
2022/05/04 08:29:46;;;;;;;16.02;8.35;;;23.10;41.20;;;;;;5090276;28;20046;-72
2022/05/04 08:32:13;;;;;;;13.18;7.78;;;23.00;41.20;;;;;;5107608;28;20024;-72
2022/05/04 08:34:39;;;;;;;13.73;7.60;;;22.90;41.30;;;;;;5114762;28;20015;-72
2022/05/04 08:37:05;;;;;;;22.30;9.57;;;22.80;41.30;;;;;;5086982;28;20032;-72
2022/05/04 08:39:31;;;;;;;15.88;9.07;;;22.80;41.70;;;;;;5087948;28;20473;-72
2022/05/04 08:41:58;;;;;;;19.60;9.73;;;22.70;42.10;;;;;;5081125;28;20054;-72
2022/05/04 08:44:24;;;;;;;21.20;10.10;;;22.60;42.30;;;;;;5090508;28;20027;-72
2022/05/04 08:46:51;;;;;;;15.18;8.15;;;22.60;42.60;;;;;;5093823;28;20407;-72
2022/05/04 08:49:19;;;;;;;13.63;8.38;;;22.50;42.60;;;;;;5092701;28;20074;-72
2022/05/04 08:51:46;;;;;;;15.23;7.97;;;22.50;42.90;;;;;;5090924;28;20035;-72
2022/05/04 08:54:13;;;;;;;10.48;7.80;;;22.50;43.20;;;;;;5084588;28;20062;-72
2022/05/04 08:56:39;;;;;;;19.55;7.57;;;22.50;43.30;;;;;;5078344;28;20031;-72
2022/05/04 08:59:06;;;;;;;16.58;8.73;;;22.50;43.40;;;;;;5091789;28;20024;-72
2022/05/04 09:01:41;;;;;;;13.40;7.88;;;22.50;43.30;;;;;;5079890;28;20485;-72
2022/05/04 09:04:08;;;;;;;16.73;8.48;;;22.50;43.90;;;;;;5088473;28;20035;-72
2022/05/04 09:06:41;;;;;;;15.18;8.40;;;22.60;43.30;;;;;;5086326;28;20141;-71
2022/05/04 09:09:10;;;;;;;13.07;8.20;;;22.70;43.50;;;;;;5079029;28;20545;-72
2022/05/04 09:11:42;;;;;;;12.20;7.13;;;22.80;43.40;;;;;;5083166;28;20121;-72
2022/05/04 09:14:12;;;;;;;9.43;5.85;;;23.00;43.10;;;;;;5091899;28;20542;-72
2022/05/04 09:16:38;;;;;;;6.97;5.60;;;23.10;43.10;;;;;;5093139;28;20085;-72
2022/05/04 09:19:06;;;;;;;8.98;5.22;;;23.30;43.30;;;;;;5077403;28;20025;-72
2022/05/04 09:21:33;;;;;;;6.72;4.13;;;23.40;43.20;;;;;;5084405;28;20457;-72
2022/05/04 09:23:58;;;;;;;8.07;3.97;;;23.60;42.80;;;;;;5092280;28;20058;-72
2022/05/04 09:26:25;;;;;;;8.10;3.88;;;23.80;42.50;;;;;;5093660;28;20388;-73
2022/05/04 09:28:51;;;;;;;8.40;3.42;;;24.00;42.20;;;;;;5081721;28;20024;-73
2022/05/04 09:31:23;;;;;;;6.55;4.03;;;24.10;41.20;;;;;;5085588;28;20398;-72
2022/05/04 09:33:57;;;;;;;6.60;3.95;;;24.20;39.90;;;;;;5094318;28;20020;-72
2022/05/04 09:36:31;;;;;;;7.38;3.60;;;24.30;40.00;;;;;;5088626;28;20020;-72
2022/05/04 09:47:18;;;;;;;6.88;4.45;;;24.70;40.10;;;;;;5080990;28;19915;-72
2022/05/04 09:49:46;;;;;;;4.72;3.83;;;24.80;38.00;;;;;;5075195;28;20111;-73
2022/05/04 09:52:14;;;;;;;4.88;2.90;;;24.80;38.30;;;;;;5073397;28;20021;-72
2022/05/04 09:54:40;;;;;;;4.63;3.28;;;24.80;38.20;;;;;;5082507;28;20028;-73
2022/05/04 09:57:06;;;;;;;4.30;3.00;;;24.70;38.00;;;;;;5096398;28;20099;-73
2022/05/04 09:59:34;;;;;;;4.47;3.28;;;24.70;38.00;;;;;;5079971;28;20123;-72
2022/05/04 10:02:02;;;;;;;5.07;3.90;;;24.70;38.00;;;;;;5103230;28;20069;-72
2022/05/04 10:04:28;;;;;;;7.03;4.18;;;24.70;37.60;;;;;;5076028;28;20020;-72
2022/05/04 10:06:55;;;;;;;9.55;3.97;;;24.60;37.70;;;;;;5082213;28;20513;-72
2022/05/04 10:09:22;;;;;;;7.18;4.50;;;24.60;37.70;;;;;;5093058;28;20035;-72
2022/05/04 10:11:57;;;;;;;12.05;4.80;;;24.60;37.60;;;;;;5083557;28;20025;-72
2022/05/04 10:14:24;;;;;;;10.63;4.30;;;24.50;37.80;;;;;;5072104;28;20028;-72
2022/05/04 10:17:11;;;;;;;7.90;5.20;;;24.40;37.90;;;;;;5076703;28;20075;-72
2022/05/04 10:20:03;;;;;;;9.20;4.35;;;24.30;37.80;;;;;;5082941;28;20020;-73
2022/05/04 10:22:39;;;;;;;6.70;3.97;;;24.20;37.20;;;;;;5075598;28;20531;-73
2022/05/04 10:25:06;;;;;;;8.73;3.92;;;24.10;37.20;;;;;;5090134;28;20024;-72
2022/05/04 10:27:37;;;;;;;6.00;4.53;;;24.00;38.00;;;;;;5084549;28;20023;-73
2022/05/04 10:32:51;;;;;;;9.25;4.63;;;23.80;37.90;;;;;;5072233;28;20060;-72
2022/05/04 10:35:22;;;;;;;9.18;4.53;;;23.70;38.40;;;;;;5072817;28;20120;-72
2022/05/04 10:37:53;;;;;;;7.55;4.80;;;23.70;38.80;;;;;;5072852;28;20025;-72
2022/05/04 10:40:35;;;;;;;6.45;4.63;;;23.60;38.60;;;;;;5072041;28;20124;-72
2022/05/04 10:43:03;;;;;;;10.10;4.68;;;23.60;38.80;;;;;;5071842;28;20028;-72
2022/05/04 10:45:37;;;;;;;6.63;4.53;;;23.50;38.50;;;;;;5085292;28;20032;-73
2022/05/04 10:48:18;;;;;;;;;;;23.50;38.80;;;;;;5078377;28;20023;-72
2022/05/04 10:50:49;;;;;;;8.50;3.97;;;23.60;39.20;;;;;;5088907;28;19942;-72
2022/05/04 10:53:24;;;;;;;11.55;4.82;;;23.60;38.00;;;;;;5092650;28;20019;-73
2022/05/04 10:56:05;;;;;;;7.93;4.72;;;23.50;37.80;;;;;;5078554;28;20056;-72
2022/05/04 10:58:43;;;;;;;14.80;6.30;;;23.50;38.40;;;;;;5071063;28;20028;-72
2022/05/04 11:01:20;;;;;;;10.50;6.00;;;23.50;38.30;;;;;;5072256;28;20074;-72
2022/05/04 11:03:55;;;;;;;10.57;5.20;;;23.50;38.10;;;;;;5071250;28;20120;-73
2022/05/04 11:06:29;;;;;;;7.25;5.25;;;23.50;38.30;;;;;;5078224;28;20111;-73
2022/05/04 11:08:56;;;;;;;;;;;23.50;37.90;;;;;;5092914;28;20136;-72
2022/05/04 11:11:23;;;;;;;8.65;5.15;;;23.60;38.50;;;;;;5075529;28;19999;-72
2022/05/04 11:13:50;;;;;;;9.68;5.47;;;23.60;37.70;;;;;;5084794;28;20028;-72
2022/05/04 11:16:16;;;;;;;7.07;4.40;;;23.60;37.80;;;;;;5084904;28;20029;-72
2022/05/04 11:18:42;;;;;;;12.70;4.45;;;23.50;37.50;;;;;;5072434;28;20473;-73
2022/05/04 11:21:13;;;;;;;11.82;5.47;;;23.60;37.60;;;;;;5070733;28;20033;-72
2022/05/04 11:23:39;;;;;;;8.80;5.75;;;23.60;37.40;;;;;;5083123;28;20020;-72
2022/05/04 11:26:05;;;;;;;7.10;4.45;;;23.60;37.30;;;;;;5083523;28;20510;-72
2022/05/04 11:28:33;;;;;;;15.25;7.15;;;23.60;37.50;;;;;;5083802;28;20128;-72
2022/05/04 11:30:58;;;;;;;11.85;7.13;;;23.70;37.00;;;;;;5071311;28;20029;-73
2022/05/04 11:33:25;;;;;;;12.45;7.10;;;23.70;36.80;;;;;;5084701;28;20091;-72
2022/05/04 11:35:53;;;;;;;11.40;6.45;;;23.70;36.70;;;;;;5092768;28;20107;-72
2022/05/04 11:38:20;;;;;;;13.48;6.88;;;23.70;36.40;;;;;;5092861;28;20070;-72
2022/05/04 11:40:47;;;;;;;14.73;7.65;;;23.70;36.20;;;;;;5092821;28;20473;-73
2022/05/04 11:43:34;;;;;;;12.00;7.28;;;23.80;36.40;;;;;;5081741;28;20039;-73
2022/05/04 11:46:09;;;;;;;8.50;6.20;;;23.90;36.50;;;;;;5071898;28;20036;-72
2022/05/04 11:48:37;;;;;;;13.00;7.20;;;23.90;36.10;;;;;;5091147;28;20107;-73
2022/05/04 11:51:06;;;;;;;14.57;8.57;;;24.00;36.10;;;;;;5076344;28;20104;-72
2022/05/04 11:53:34;;;;;;;14.48;8.57;;;24.00;36.30;;;;;;5076281;28;20029;-72
2022/05/04 11:56:03;;;;;;;12.80;7.15;;;24.10;36.20;;;;;;5089827;28;20052;-73
2022/05/04 11:58:30;;;;;;;15.55;8.20;;;24.20;35.90;;;;;;5088312;28;20086;-73
2022/05/04 12:00:56;;;;;;;15.50;8.35;;;24.20;36.10;;;;;;5076706;28;20087;-73
2022/05/04 12:03:24;;;;;;;15.07;7.57;;;24.30;35.30;;;;;;5098345;28;20477;-73
2022/05/04 12:05:50;;;;;;;12.07;6.85;;;24.40;34.70;;;;;;5082501;28;20020;-71
2022/05/04 12:08:19;;;;;;;16.15;7.78;;;24.50;34.90;;;;;;5112601;28;20502;-71
2022/05/04 12:10:47;;;;;;;10.32;5.88;;;24.60;34.30;;;;;;5091580;28;20028;-70
2022/05/04 12:13:15;;;;;;;13.35;6.07;;;24.60;34.10;;;;;;5089963;28;20085;-70
2022/05/04 12:15:42;;;;;;;14.75;6.07;;;24.70;34.00;;;;;;5076784;28;20486;-72
2022/05/04 12:18:10;;;;;;;15.23;6.45;;;24.70;33.70;;;;;;5069923;28;20047;-71
2022/05/04 12:20:36;;;;;;;11.70;5.38;;;24.80;33.20;;;;;;5072131;28;20028;-71
2022/05/04 12:23:02;;;;;;;12.85;6.35;;;24.80;33.20;;;;;;5073990;28;20028;-71
2022/05/04 12:25:28;;;;;;;13.30;6.90;;;24.90;33.10;;;;;;5075907;28;20108;-71
2022/05/04 12:27:56;;;;;;;14.75;5.85;;;24.90;33.50;;;;;;5083206;28;20474;-71
2022/05/04 12:33:09;;;;;;;11.27;5.63;;;24.90;33.10;;;;;;5095879;28;20039;-70
2022/05/04 12:35:39;;;;;;;11.82;6.00;;;25.00;33.20;;;;;;5095747;28;20446;-71
2022/05/04 12:38:06;;;;;;;9.65;5.00;;;25.10;33.10;;;;;;5094656;28;20391;-71
2022/05/04 12:40:33;;;;;;;10.13;5.38;;;25.20;33.20;;;;;;5094185;28;20422;-71
2022/05/04 12:43:00;;;;;;;8.70;4.05;;;25.30;33.10;;;;;;5095668;28;20481;-72
2022/05/04 12:45:27;;;;;;;9.05;4.75;;;25.40;32.70;;;;;;5079797;28;20535;-71
2022/05/04 12:47:56;;;;;;;9.45;5.32;;;25.40;32.00;;;;;;5092369;28;20362;-71
2022/05/04 12:50:24;;;;;;;11.30;4.43;;;25.50;31.70;;;;;;5095445;28;20047;-71
2022/05/04 12:52:50;;;;;;;10.55;5.45;;;25.50;31.60;;;;;;5095575;28;20024;-71
2022/05/04 12:55:17;;;;;;;8.85;4.78;;;25.50;31.80;;;;;;5095424;28;20157;-71
2022/05/04 12:57:43;;;;;;;11.15;5.20;;;25.60;31.70;;;;;;5095393;28;20036;-71
2022/05/04 13:00:12;;;;;;;7.05;4.10;;;25.70;31.30;;;;;;5095468;28;20123;-71
2022/05/04 13:02:44;;;;;;;7.22;4.03;;;25.80;31.50;;;;;;5095361;28;20020;-71
2022/05/04 13:05:10;;;;;;;7.38;4.40;;;25.80;30.50;;;;;;5093844;28;20481;-71
2022/05/04 13:07:36;;;;;;;8.40;4.88;;;25.80;31.10;;;;;;5093931;28;20063;-71
2022/05/04 13:10:05;;;;;;;11.32;4.43;;;25.90;31.00;;;;;;5083889;28;20024;-71
2022/05/04 13:12:31;;;;;;;7.53;4.20;;;26.00;30.90;;;;;;5073882;28;20067;-71
2022/05/04 13:14:57;;;;;;;8.40;3.92;;;26.00;30.40;;;;;;5074782;28;20048;-71
2022/05/04 13:17:23;;;;;;;5.47;3.60;;;26.00;30.00;;;;;;5074743;28;20039;-71
2022/05/04 13:19:49;;;;;;;7.38;4.68;;;26.10;30.00;;;;;;5074619;28;20123;-71